createdAt,value
2023-08-17T00:01:43.104Z,2.20
2023-08-17T00:06:44.886Z,2.17
2023-08-17T00:11:46.602Z,2.17
2023-08-17T00:16:51.486Z,2.08
2023-08-17T00:21:53.818Z,1.50
2023-08-17T00:26:55.469Z,1.67
2023-08-17T00:31:59.059Z,1.50
2023-08-17T00:37:00.782Z,1.70
2023-08-17T00:42:02.464Z,1.73
2023-08-17T00:47:05.821Z,1.80
2023-08-17T00:52:07.763Z,2.15
2023-08-17T00:57:10.864Z,1.83
2023-08-17T01:02:12.867Z,1.90
2023-08-17T01:07:14.540Z,1.73
2023-08-17T01:12:39.135Z,2.10
2023-08-17T01:17:45.088Z,2.00
2023-08-17T01:22:50.073Z,1.90
2023-08-17T01:27:51.811Z,1.80
2023-08-17T01:33:04.740Z,1.90
2023-08-17T01:38:10.807Z,1.20
2023-08-17T01:43:13.791Z,1.90
2023-08-17T01:48:15.472Z,1.70
2023-08-17T01:53:17.175Z,1.67
2023-08-17T01:58:18.865Z,1.40
2023-08-17T02:03:20.918Z,1.98
2023-08-17T02:08:23.960Z,1.88
2023-08-17T02:13:25.925Z,0.95
2023-08-17T02:18:27.685Z,1.88
2023-08-17T02:23:29.447Z,1.60
2023-08-17T02:28:31.249Z,1.80
2023-08-17T02:33:34.717Z,2.17
2023-08-17T02:38:37.953Z,2.10
2023-08-17T02:43:39.581Z,1.98
2023-08-17T02:48:41.212Z,1.80
2023-08-17T02:53:42.925Z,2.33
2023-08-17T02:58:44.695Z,2.13
2023-08-17T03:03:46.427Z,1.80
2023-08-17T03:08:48.157Z,2.70
2023-08-17T03:13:49.933Z,2.50
2023-08-17T03:18:51.753Z,2.65
2023-08-17T03:23:53.714Z,3.08
2023-08-17T03:28:55.814Z,2.60
2023-08-17T03:33:57.897Z,2.50
2023-08-17T03:39:00.270Z,2.67
2023-08-17T03:44:02.305Z,2.40
2023-08-17T03:49:04.154Z,2.13
2023-08-17T03:54:05.928Z,2.55
2023-08-17T03:59:07.700Z,2.17
2023-08-17T04:04:09.631Z,1.90
2023-08-17T04:09:11.417Z,1.85
2023-08-17T04:14:13.509Z,1.90
2023-08-17T04:19:15.554Z,2.50
2023-08-17T04:24:17.389Z,1.98
2023-08-17T04:29:19.261Z,2.53
2023-08-17T04:34:23.678Z,2.60
2023-08-17T04:39:25.462Z,2.40
2023-08-17T04:44:27.326Z,2.30
2023-08-17T04:49:29.201Z,2.63
2023-08-17T04:54:31.115Z,2.47
2023-08-17T04:59:32.881Z,2.63
2023-08-17T05:04:35.807Z,2.75
2023-08-17T05:09:38.412Z,2.83
2023-08-17T05:14:40.651Z,2.25
2023-08-17T05:19:43.044Z,2.50
2023-08-17T05:24:44.893Z,2.28
2023-08-17T05:29:46.989Z,2.28
2023-08-17T05:34:48.932Z,1.23
2023-08-17T05:39:50.999Z,2.30
2023-08-17T05:44:52.615Z,1.70
2023-08-17T05:49:54.258Z,2.28
2023-08-17T05:54:55.969Z,2.25
2023-08-17T05:59:57.882Z,2.42
2023-08-17T06:04:59.661Z,1.90
2023-08-17T06:10:01.479Z,1.95
2023-08-17T06:15:04.361Z,1.75
2023-08-17T06:20:10.899Z,2.17
2023-08-17T06:25:12.619Z,2.22
2023-08-17T06:30:14.829Z,1.67
2023-08-17T06:35:16.526Z,1.70
2023-08-17T06:40:18.363Z,2.00
2023-08-17T06:45:20.161Z,1.42
2023-08-17T06:50:21.896Z,1.55
2023-08-17T06:55:25.979Z,1.50
2023-08-17T07:00:30.122Z,0.70
2023-08-17T07:05:31.765Z,1.25
2023-08-17T07:10:33.404Z,0.88
2023-08-17T07:15:35.078Z,1.40
2023-08-17T07:20:40.692Z,1.73
2023-08-17T07:25:42.345Z,0.68
2023-08-17T07:30:43.962Z,2.45
2023-08-17T07:35:45.579Z,0.85
2023-08-17T07:40:47.177Z,1.90
2023-08-17T07:45:59.766Z,1.80
2023-08-17T07:51:01.510Z,1.30
2023-08-17T07:56:03.348Z,1.00
2023-08-17T08:01:05.558Z,0.80
2023-08-17T08:06:09.803Z,1.55
2023-08-17T08:11:11.456Z,1.20
2023-08-17T08:16:13.244Z,1.40
2023-08-17T08:21:14.937Z,1.40
2023-08-17T08:26:16.646Z,1.27
2023-08-17T08:31:18.314Z,1.65
2023-08-17T08:36:20.185Z,1.80
2023-08-17T08:41:22.753Z,1.25
2023-08-17T08:46:27.838Z,1.73
2023-08-17T08:51:34.603Z,1.25
2023-08-17T08:56:39.835Z,1.48
2023-08-17T09:01:42.338Z,1.30
2023-08-17T09:06:44.921Z,0.70
2023-08-17T09:11:46.670Z,1.13
2023-08-17T09:16:48.450Z,1.63
2023-08-17T09:21:51.727Z,1.90
2023-08-17T09:26:55.606Z,1.20
2023-08-17T09:31:57.220Z,0.60
2023-08-17T09:37:07.495Z,1.27
2023-08-17T09:42:12.175Z,1.08
2023-08-17T09:47:13.925Z,1.38
2023-08-17T09:52:15.528Z,1.30
2023-08-17T09:57:22.755Z,5.55
2023-08-17T10:02:25.919Z,1.00
2023-08-17T10:07:33.709Z,1.10
2023-08-17T10:12:46.848Z,1.80
2023-08-17T10:17:59.696Z,1.55
2023-08-17T10:23:15.714Z,2.47
2023-08-17T10:28:18.302Z,1.50
2023-08-17T10:33:20.543Z,1.60
2023-08-17T10:38:22.265Z,1.42
2023-08-17T10:43:33.437Z,2.00
2023-08-17T10:48:37.801Z,1.10
2023-08-17T10:53:44.060Z,2.60
2023-08-17T10:58:45.791Z,1.30
2023-08-17T11:03:47.659Z,2.40
2023-08-17T11:08:59.752Z,1.60
2023-08-17T11:14:01.675Z,1.00
2023-08-17T11:19:04.034Z,1.73
2023-08-17T11:24:10.281Z,0.82
2023-08-17T11:29:12.482Z,1.13
2023-08-17T11:34:16.468Z,1.80
2023-08-17T11:39:22.030Z,1.05
2023-08-17T11:44:24.909Z,2.60
2023-08-17T11:49:30.001Z,2.08
2023-08-17T11:54:34.305Z,1.80
2023-08-17T11:59:36.057Z,5.90
2023-08-17T12:04:38.397Z,2.38
2023-08-17T12:09:41.046Z,5.25
2023-08-17T12:14:45.357Z,1.85
2023-08-17T12:19:55.501Z,2.10
2023-08-17T12:29:58.788Z,0.77
2023-08-17T12:35:00.485Z,1.58
2023-08-17T12:40:02.296Z,2.25
2023-08-17T12:45:05.934Z,2.03
2023-08-17T12:50:08.306Z,1.90
2023-08-17T12:55:10.746Z,1.73
2023-08-17T13:00:13.064Z,2.10
2023-08-17T13:05:14.784Z,2.22
2023-08-17T13:10:16.551Z,2.53
2023-08-17T13:15:18.204Z,2.03
2023-08-17T13:20:20.104Z,3.60
2023-08-17T13:25:22.095Z,2.58
2023-08-17T13:30:23.890Z,2.10
2023-08-17T13:35:25.813Z,2.33
2023-08-17T13:40:27.433Z,2.17
2023-08-17T13:45:29.214Z,2.38
2023-08-17T13:50:30.921Z,2.60
2023-08-17T13:55:32.934Z,2.67
2023-08-17T14:00:34.580Z,2.42
2023-08-17T14:05:36.491Z,2.83
2023-08-17T14:10:40.143Z,2.78
2023-08-17T14:15:42.283Z,2.72
2023-08-17T14:20:44.047Z,2.08
2023-08-17T14:25:45.750Z,2.83
2023-08-17T14:30:52.571Z,2.25
2023-08-17T14:35:54.474Z,2.38
2023-08-17T14:40:56.162Z,2.53
2023-08-17T14:45:58.092Z,2.30
2023-08-17T14:50:59.827Z,2.22
2023-08-17T14:56:01.522Z,2.90
2023-08-17T15:01:04.301Z,1.83
2023-08-17T15:06:14.475Z,2.33
2023-08-17T15:11:25.789Z,1.85
2023-08-17T15:16:28.932Z,2.00
2023-08-17T15:21:30.793Z,1.75
2023-08-17T15:26:32.520Z,1.98
2023-08-17T15:31:34.201Z,2.17
2023-08-17T15:36:36.486Z,1.58
2023-08-17T15:41:41.585Z,1.60
2023-08-17T15:46:43.327Z,2.15
2023-08-17T15:51:45.665Z,2.05
2023-08-17T15:56:47.330Z,2.03
2023-08-17T16:01:49.046Z,2.35
2023-08-17T16:06:50.653Z,2.40
2023-08-17T16:11:52.291Z,3.10
2023-08-17T16:16:57.135Z,9.75
2023-08-17T16:21:59.344Z,4.47
2023-08-17T16:27:02.270Z,3.00
2023-08-17T16:37:10.011Z,6.43
2023-08-17T16:42:11.719Z,4.47
2023-08-17T16:47:13.446Z,2.58
2023-08-17T16:52:15.147Z,2.90
2023-08-17T16:57:16.991Z,2.85
2023-08-17T17:02:18.702Z,3.22
2023-08-17T17:07:20.331Z,2.50
2023-08-17T17:12:22.000Z,4.22
2023-08-17T17:17:24.002Z,3.38
2023-08-17T17:22:27.382Z,4.00
2023-08-17T17:27:29.168Z,3.72
2023-08-17T17:32:31.058Z,3.55
2023-08-17T17:37:33.860Z,3.92
2023-08-17T17:42:37.701Z,3.10
2023-08-17T17:47:39.358Z,2.78
2023-08-17T17:52:41.080Z,3.13
2023-08-17T17:57:42.968Z,3.33
2023-08-17T18:02:44.713Z,3.53
2023-08-17T18:07:46.473Z,3.53
2023-08-17T18:12:48.133Z,4.15
2023-08-17T18:17:49.835Z,3.53
2023-08-17T18:22:51.809Z,3.45
2023-08-17T18:27:53.714Z,3.58
2023-08-17T18:32:55.520Z,2.17
2023-08-17T18:37:57.629Z,2.75
2023-08-17T18:42:59.513Z,2.25
2023-08-17T18:48:01.295Z,3.70
2023-08-17T18:53:04.418Z,2.97
2023-08-17T18:58:06.182Z,3.63
2023-08-17T19:03:07.913Z,4.55
2023-08-17T19:08:09.616Z,3.40
2023-08-17T19:13:11.299Z,4.03
2023-08-17T19:18:12.999Z,3.55
2023-08-17T19:23:14.746Z,3.83
2023-08-17T19:28:16.974Z,4.22
2023-08-17T19:33:18.695Z,5.25
2023-08-17T19:38:20.405Z,3.75
2023-08-17T19:43:22.142Z,4.85
2023-08-17T19:48:23.852Z,4.28
2023-08-17T19:53:25.610Z,3.40
2023-08-17T19:58:27.232Z,5.97
2023-08-17T20:03:29.844Z,6.38
2023-08-17T20:08:31.650Z,7.25
2023-08-17T20:13:33.307Z,6.50
2023-08-17T20:18:35.062Z,7.25
2023-08-17T20:23:37.990Z,6.63
2023-08-17T20:28:40.245Z,6.15
2023-08-17T20:33:43.845Z,6.40
2023-08-17T20:38:46.922Z,5.97
2023-08-17T20:43:48.581Z,5.68
2023-08-17T20:48:50.854Z,5.22
2023-08-17T20:53:53.585Z,6.10
2023-08-17T20:58:55.696Z,4.93
2023-08-17T21:03:57.425Z,4.30
2023-08-17T21:08:59.101Z,4.85
2023-08-17T21:14:02.731Z,4.72
2023-08-17T21:19:04.583Z,5.13
2023-08-17T21:24:08.037Z,6.15
2023-08-17T21:29:09.772Z,6.38
2023-08-17T21:34:11.448Z,6.28
2023-08-17T21:39:14.434Z,7.45
2023-08-17T21:44:16.258Z,6.80
2023-08-17T21:49:17.921Z,6.55
2023-08-17T21:54:19.592Z,6.43
2023-08-17T21:59:22.259Z,6.18
2023-08-17T22:04:24.230Z,5.20
2023-08-17T22:09:25.999Z,5.95
2023-08-17T22:14:30.207Z,4.80
2023-08-17T22:19:31.901Z,3.90
2023-08-17T22:24:45.348Z,3.88
2023-08-17T22:29:52.405Z,3.63
2023-08-17T22:34:54.570Z,3.78
2023-08-17T22:39:56.245Z,3.47
2023-08-17T22:44:57.930Z,3.13
2023-08-17T22:49:59.913Z,3.15
2023-08-17T22:55:01.589Z,2.60
2023-08-17T23:00:04.834Z,3.22
2023-08-17T23:05:10.334Z,2.55
2023-08-17T23:10:12.904Z,3.60
2023-08-17T23:15:14.616Z,4.05
2023-08-17T23:20:16.286Z,3.53
2023-08-17T23:25:18.027Z,2.97
2023-08-17T23:30:19.853Z,3.42
2023-08-17T23:35:21.520Z,3.90
2023-08-17T23:40:24.315Z,3.17
2023-08-17T23:45:26.186Z,3.25
2023-08-17T23:50:27.826Z,2.97
2023-08-17T23:55:29.510Z,3.38
